createdAt,value
2022-08-28T00:00:09.571Z,9.10
2022-08-28T00:02:36.272Z,11.60
2022-08-28T00:05:04.442Z,9.32
2022-08-28T00:07:30.986Z,7.38
2022-08-28T00:09:57.550Z,9.63
2022-08-28T00:12:24.093Z,7.78
2022-08-28T00:14:50.679Z,5.93
2022-08-28T00:17:17.245Z,7.25
2022-08-28T00:19:43.821Z,7.28
2022-08-28T00:22:10.547Z,7.00
2022-08-28T00:24:37.094Z,4.97
2022-08-28T00:27:22.647Z,7.00
2022-08-28T00:29:49.262Z,6.20
2022-08-28T00:32:15.922Z,6.20
2022-08-28T00:34:42.455Z,5.72
2022-08-28T00:37:08.983Z,5.97
2022-08-28T00:39:35.521Z,7.40
2022-08-28T00:42:02.203Z,7.38
2022-08-28T00:44:29.083Z,5.15
2022-08-28T00:46:58.884Z,4.60
2022-08-28T00:49:32.038Z,5.63
2022-08-28T00:52:05.789Z,5.05
2022-08-28T00:54:37.200Z,4.38
2022-08-28T00:57:07.429Z,6.45
2022-08-28T00:59:34.764Z,5.28
2022-08-28T01:02:01.425Z,5.30
2022-08-28T01:04:32.222Z,8.90
2022-08-28T01:07:02.398Z,6.15
2022-08-28T01:09:31.800Z,8.25
2022-08-28T01:12:03.232Z,8.00
2022-08-28T01:14:33.891Z,5.65
2022-08-28T01:17:00.751Z,8.35
2022-08-28T01:19:38.147Z,7.18
2022-08-28T01:22:36.825Z,8.57
2022-08-28T01:25:07.267Z,9.02
2022-08-28T01:27:34.173Z,6.20
2022-08-28T01:30:00.722Z,11.45
2022-08-28T01:32:47.257Z,6.13
2022-08-28T01:35:17.031Z,5.88
2022-08-28T01:37:44.075Z,5.90
2022-08-28T01:40:13.850Z,6.25
2022-08-28T01:42:42.485Z,7.40
2022-08-28T01:47:42.840Z,6.13
2022-08-28T01:50:13.393Z,6.20
2022-08-28T01:52:40.425Z,7.53
2022-08-28T01:55:08.471Z,9.77
2022-08-28T01:57:36.012Z,9.15
2022-08-28T02:00:02.707Z,8.80
2022-08-28T02:02:29.918Z,8.57
2022-08-28T02:04:56.452Z,7.57
2022-08-28T02:07:23.000Z,6.15
2022-08-28T02:09:49.548Z,11.07
2022-08-28T02:12:16.421Z,10.88
2022-08-28T02:14:42.981Z,17.45
2022-08-28T02:17:09.560Z,10.13
2022-08-28T02:19:36.741Z,7.68
2022-08-28T02:22:08.151Z,9.00
2022-08-28T02:24:35.746Z,8.85
2022-08-28T02:27:04.000Z,8.93
2022-08-28T02:29:30.563Z,10.80
2022-08-28T02:31:57.220Z,6.43
2022-08-28T02:34:23.843Z,7.82
2022-08-28T02:36:50.420Z,7.18
2022-08-28T02:39:16.991Z,10.02
2022-08-28T02:41:43.565Z,6.78
2022-08-28T02:44:10.319Z,5.60
2022-08-28T02:46:36.962Z,7.90
2022-08-28T02:49:03.548Z,7.00
2022-08-28T02:51:34.217Z,7.40
2022-08-28T02:54:01.460Z,5.78
2022-08-28T02:56:28.873Z,8.77
2022-08-28T02:58:55.733Z,8.00
2022-08-28T03:01:23.429Z,7.30
2022-08-28T03:03:50.078Z,6.28
2022-08-28T03:06:16.821Z,9.40
2022-08-28T03:08:44.209Z,7.00
2022-08-28T03:11:12.009Z,8.23
2022-08-28T03:13:38.703Z,9.38
2022-08-28T03:16:05.881Z,6.88
2022-08-28T03:18:33.216Z,6.60
2022-08-28T03:21:00.538Z,6.72
2022-08-28T03:23:27.275Z,7.10
2022-08-28T03:26:10.079Z,10.30
2022-08-28T03:28:41.254Z,9.57
2022-08-28T03:31:09.301Z,8.73
2022-08-28T03:33:36.054Z,8.52
2022-08-28T03:36:04.602Z,8.10
2022-08-28T03:38:31.598Z,6.75
2022-08-28T03:40:58.145Z,6.60
2022-08-28T03:43:25.572Z,5.18
2022-08-28T03:46:02.639Z,7.80
2022-08-28T03:48:33.191Z,6.63
2022-08-28T03:51:00.643Z,7.70
2022-08-28T03:53:29.701Z,8.02
2022-08-28T03:55:57.901Z,4.75
2022-08-28T03:58:25.378Z,9.18
2022-08-28T04:00:52.009Z,5.55
2022-08-28T04:03:18.967Z,6.50
2022-08-28T04:05:46.700Z,6.90
2022-08-28T04:08:16.023Z,7.17
2022-08-28T04:10:46.637Z,5.13
2022-08-28T04:13:15.184Z,8.02
2022-08-28T04:18:09.719Z,10.23
2022-08-28T04:20:37.233Z,7.88
2022-08-28T04:23:04.474Z,9.50
2022-08-28T04:25:31.534Z,10.55
2022-08-28T04:27:58.209Z,7.72
2022-08-28T04:30:24.852Z,7.03
2022-08-28T04:32:51.389Z,10.30
2022-08-28T04:35:18.367Z,9.30
2022-08-28T04:37:44.903Z,6.88
2022-08-28T04:40:13.306Z,11.52
2022-08-28T04:42:40.220Z,8.05
2022-08-28T04:45:07.667Z,7.50
2022-08-28T04:47:38.718Z,6.60
2022-08-28T04:50:06.794Z,7.60
2022-08-28T04:52:33.533Z,9.02
2022-08-28T04:55:00.245Z,6.32
2022-08-28T04:57:26.860Z,7.80
2022-08-28T04:59:53.426Z,6.85
2022-08-28T05:02:20.086Z,5.97
2022-08-28T05:04:47.300Z,8.05
2022-08-28T05:07:14.062Z,6.22
2022-08-28T05:09:40.617Z,9.13
2022-08-28T05:12:07.287Z,5.00
2022-08-28T05:14:33.981Z,5.15
2022-08-28T05:17:00.601Z,5.43
2022-08-28T05:19:28.282Z,6.28
2022-08-28T05:21:54.957Z,7.50
2022-08-28T05:24:22.449Z,6.47
2022-08-28T05:26:49.272Z,6.50
2022-08-28T05:29:16.997Z,10.77
2022-08-28T05:31:43.722Z,4.45
2022-08-28T05:34:10.735Z,5.53
2022-08-28T05:36:38.708Z,5.72
2022-08-28T05:39:08.027Z,5.25
2022-08-28T05:41:34.923Z,4.72
2022-08-28T05:44:04.925Z,7.13
2022-08-28T05:46:32.588Z,4.43
2022-08-28T05:49:00.377Z,4.77
2022-08-28T05:51:28.125Z,7.82
2022-08-28T05:53:57.736Z,4.45
2022-08-28T05:56:31.443Z,5.85
2022-08-28T05:59:00.037Z,5.03
2022-08-28T06:01:31.826Z,3.35
2022-08-28T06:04:07.381Z,4.72
2022-08-28T06:06:35.838Z,3.53
2022-08-28T06:11:32.722Z,7.22
2022-08-28T06:14:04.053Z,6.57
2022-08-28T06:16:32.156Z,4.97
2022-08-28T06:18:59.415Z,7.53
2022-08-28T06:21:26.311Z,6.93
2022-08-28T06:23:53.305Z,5.05
2022-08-28T06:26:19.872Z,7.88
2022-08-28T06:28:46.448Z,5.30
2022-08-28T06:31:25.069Z,4.68
2022-08-28T06:33:54.253Z,4.80
2022-08-28T06:36:21.209Z,4.30
2022-08-28T06:38:47.800Z,4.88
2022-08-28T06:41:15.528Z,4.22
2022-08-28T06:43:42.357Z,4.45
2022-08-28T06:46:09.113Z,4.85
2022-08-28T06:48:36.297Z,4.60
2022-08-28T06:51:06.708Z,5.00
2022-08-28T06:53:33.841Z,4.82
2022-08-28T06:56:07.702Z,4.90
2022-08-28T06:58:37.411Z,4.55
2022-08-28T07:01:12.516Z,7.20
2022-08-28T07:03:42.603Z,6.40
2022-08-28T07:06:13.522Z,5.80
2022-08-28T07:08:41.328Z,6.50
2022-08-28T07:13:46.036Z,7.75
2022-08-28T07:16:17.768Z,8.20
2022-08-28T07:18:45.709Z,7.22
2022-08-28T07:23:42.335Z,6.70
2022-08-28T07:26:12.316Z,9.18
2022-08-28T07:28:38.866Z,5.82
2022-08-28T07:31:09.857Z,6.10
2022-08-28T07:33:38.044Z,7.25
2022-08-28T07:36:07.745Z,7.65
2022-08-28T07:38:34.487Z,9.52
2022-08-28T07:41:02.236Z,7.13
2022-08-28T07:46:14.204Z,5.40
2022-08-28T07:48:41.598Z,6.45
2022-08-28T07:51:09.633Z,5.72
2022-08-28T07:53:37.429Z,5.55
2022-08-28T07:56:05.096Z,7.13
2022-08-28T08:00:59.099Z,7.15
2022-08-28T08:03:25.800Z,6.32
2022-08-28T08:05:57.846Z,7.03
2022-08-28T08:08:24.953Z,5.68
2022-08-28T08:10:57.444Z,6.95
2022-08-28T08:13:24.079Z,5.13
2022-08-28T08:15:50.707Z,5.82
2022-08-28T08:18:17.399Z,7.95
2022-08-28T08:20:47.736Z,5.35
2022-08-28T08:23:15.430Z,7.18
2022-08-28T08:25:41.988Z,5.10
2022-08-28T08:28:08.673Z,5.25
2022-08-28T08:30:36.336Z,6.10
2022-08-28T08:33:02.865Z,6.32
2022-08-28T08:35:29.418Z,7.10
2022-08-28T08:37:57.180Z,6.32
2022-08-28T08:40:26.192Z,6.88
2022-08-28T08:42:56.993Z,7.03
2022-08-28T08:45:26.582Z,7.70
2022-08-28T08:47:55.965Z,5.95
2022-08-28T08:50:29.319Z,4.82
2022-08-28T08:53:20.087Z,6.45
2022-08-28T08:55:50.666Z,7.30
2022-08-28T08:58:24.447Z,7.00
2022-08-28T09:01:15.237Z,10.55
2022-08-28T09:03:55.255Z,6.35
2022-08-28T09:06:47.976Z,7.50
2022-08-28T09:09:21.487Z,6.28
2022-08-28T09:12:06.004Z,6.45
2022-08-28T09:14:38.442Z,6.78
2022-08-28T09:17:07.322Z,8.63
2022-08-28T09:19:34.310Z,5.43
2022-08-28T09:22:01.469Z,8.00
2022-08-28T09:24:33.853Z,6.70
2022-08-28T09:27:02.319Z,7.57
2022-08-28T09:29:35.547Z,6.82
2022-08-28T09:32:23.112Z,7.95
2022-08-28T09:34:58.713Z,6.43
2022-08-28T09:37:27.130Z,6.32
2022-08-28T09:40:18.190Z,7.22
2022-08-28T09:43:25.432Z,7.13
2022-08-28T09:45:58.292Z,7.20
2022-08-28T09:48:30.982Z,6.00
2022-08-28T09:51:03.597Z,5.78
2022-08-28T09:53:33.272Z,5.57
2022-08-28T09:56:13.205Z,7.18
2022-08-28T09:58:55.837Z,5.93
2022-08-28T10:01:40.956Z,5.43
2022-08-28T10:04:17.994Z,6.65
2022-08-28T10:06:51.314Z,5.50
2022-08-28T10:09:57.376Z,6.03
2022-08-28T10:12:26.949Z,6.47
2022-08-28T10:15:25.564Z,5.32
2022-08-28T10:18:10.688Z,8.68
2022-08-28T10:20:37.172Z,6.47
2022-08-28T10:23:15.644Z,6.20
2022-08-28T10:25:57.671Z,5.93
2022-08-28T10:28:35.138Z,6.45
2022-08-28T10:31:41.212Z,7.28
2022-08-28T10:34:43.561Z,7.13
2022-08-28T10:37:30.214Z,7.40
2022-08-28T10:39:59.953Z,5.93
2022-08-28T10:42:36.679Z,7.55
2022-08-28T10:45:18.747Z,6.45
2022-08-28T10:47:51.335Z,8.98
2022-08-28T10:50:24.789Z,5.70
2022-08-28T10:53:00.338Z,8.43
2022-08-28T10:55:34.680Z,6.22
2022-08-28T10:58:24.321Z,6.43
2022-08-28T11:00:56.037Z,5.45
2022-08-28T11:03:34.513Z,7.13
2022-08-28T11:06:11.496Z,6.93
2022-08-28T11:08:39.865Z,5.90
2022-08-28T11:11:13.500Z,5.60
2022-08-28T11:13:44.064Z,9.00
2022-08-28T11:16:24.726Z,8.52
2022-08-28T11:19:24.016Z,5.93
2022-08-28T11:21:54.288Z,5.45
2022-08-28T11:24:44.095Z,7.15
2022-08-28T11:27:24.281Z,5.97
2022-08-28T11:30:02.682Z,7.15
2022-08-28T11:32:32.637Z,5.90
2022-08-28T11:35:03.201Z,7.18
2022-08-28T11:37:59.298Z,5.85
2022-08-28T11:40:28.678Z,6.55
2022-08-28T11:43:16.828Z,5.85
2022-08-28T11:45:46.620Z,7.65
2022-08-28T11:48:23.090Z,6.40
2022-08-28T11:50:52.351Z,7.95
2022-08-28T11:53:39.690Z,7.28
2022-08-28T11:56:31.165Z,8.02
2022-08-28T11:59:08.107Z,7.15
2022-08-28T12:01:37.064Z,7.03
2022-08-28T12:04:09.661Z,7.30
2022-08-28T12:06:45.284Z,8.38
2022-08-28T12:09:33.463Z,7.57
2022-08-28T12:12:03.613Z,9.15
2022-08-28T12:14:30.157Z,9.52
2022-08-28T12:16:59.464Z,7.40
2022-08-28T12:19:49.964Z,8.63
2022-08-28T12:22:26.398Z,6.97
2022-08-28T12:24:57.973Z,8.23
2022-08-28T12:27:25.868Z,9.60
2022-08-28T12:32:48.019Z,8.98
2022-08-28T12:35:18.991Z,7.68
2022-08-28T12:37:51.870Z,7.10
2022-08-28T12:40:28.240Z,7.07
2022-08-28T12:43:03.875Z,8.82
2022-08-28T12:45:42.734Z,7.30
2022-08-28T12:48:18.332Z,7.47
2022-08-28T12:50:45.172Z,6.60
2022-08-28T12:53:17.564Z,8.35
2022-08-28T12:55:46.606Z,8.45
2022-08-28T12:58:27.055Z,6.70
2022-08-28T13:00:58.319Z,7.88
2022-08-28T13:03:25.735Z,7.20
2022-08-28T13:06:14.629Z,9.55
2022-08-28T13:08:41.400Z,5.60
2022-08-28T13:11:08.237Z,6.10
2022-08-28T13:13:40.063Z,7.65
2022-08-28T13:16:12.691Z,7.00
2022-08-28T13:19:06.338Z,6.00
2022-08-28T13:21:38.645Z,10.93
2022-08-28T13:24:35.713Z,7.93
2022-08-28T13:27:14.397Z,6.47
2022-08-28T13:29:55.695Z,7.82
2022-08-28T13:32:26.979Z,7.30
2022-08-28T13:35:21.642Z,5.85
2022-08-28T13:37:54.871Z,6.78
2022-08-28T13:40:56.794Z,6.88
2022-08-28T13:43:26.992Z,8.05
2022-08-28T13:45:54.108Z,6.10
2022-08-28T13:48:25.720Z,6.13
2022-08-28T13:51:10.475Z,9.82
2022-08-28T13:53:38.503Z,9.60
2022-08-28T13:56:05.276Z,7.15
2022-08-28T13:58:32.211Z,4.97
2022-08-28T14:01:00.767Z,5.22
2022-08-28T14:03:36.546Z,7.00
2022-08-28T14:06:16.797Z,7.07
2022-08-28T14:08:45.295Z,7.55
2022-08-28T14:11:13.607Z,7.45
2022-08-28T14:13:47.360Z,7.53
2022-08-28T14:16:21.904Z,8.73
2022-08-28T14:18:48.452Z,6.60
2022-08-28T14:21:15.046Z,6.28
2022-08-28T14:23:41.764Z,10.15
2022-08-28T14:26:08.313Z,8.27
2022-08-28T14:28:34.943Z,8.88
2022-08-28T14:31:05.674Z,8.07
2022-08-28T14:33:34.369Z,8.50
2022-08-28T14:36:03.756Z,9.45
2022-08-28T14:38:30.648Z,5.07
2022-08-28T14:40:57.353Z,6.25
2022-08-28T14:43:24.073Z,6.57
2022-08-28T14:45:50.793Z,7.53
2022-08-28T14:48:18.779Z,6.07
2022-08-28T14:50:48.179Z,7.05
2022-08-28T14:53:15.849Z,8.02
2022-08-28T14:55:48.525Z,5.72
2022-08-28T14:58:18.188Z,9.00
2022-08-28T15:00:47.892Z,10.13
2022-08-28T15:03:15.255Z,9.48
2022-08-28T15:05:42.558Z,7.38
2022-08-28T15:08:11.150Z,7.68
2022-08-28T15:10:39.168Z,7.78
2022-08-28T15:13:07.801Z,6.57
2022-08-28T15:15:39.237Z,9.95
2022-08-28T15:18:06.844Z,6.22
2022-08-28T15:20:41.656Z,6.47
2022-08-28T15:23:09.324Z,7.50
2022-08-28T15:25:35.878Z,7.82
2022-08-28T15:28:02.688Z,7.25
2022-08-28T15:30:29.254Z,6.05
2022-08-28T15:32:55.801Z,5.82
2022-08-28T15:35:22.404Z,5.95
2022-08-28T15:37:49.046Z,7.40
2022-08-28T15:40:34.459Z,6.05
2022-08-28T15:43:01.155Z,7.78
2022-08-28T15:45:27.817Z,8.20
2022-08-28T15:47:54.444Z,7.60
2022-08-28T15:50:21.190Z,11.27
2022-08-28T15:52:48.506Z,8.38
2022-08-28T15:55:15.532Z,8.85
2022-08-28T15:57:42.118Z,8.35
2022-08-28T16:00:10.478Z,9.32
2022-08-28T16:02:37.484Z,7.18
2022-08-28T16:05:04.631Z,7.50
2022-08-28T16:07:31.148Z,5.93
2022-08-28T16:09:57.748Z,8.80
2022-08-28T16:12:25.468Z,7.50
2022-08-28T16:14:52.030Z,7.75
2022-08-28T16:17:18.969Z,7.40
2022-08-28T16:22:15.895Z,5.13
2022-08-28T16:24:43.364Z,6.60
2022-08-28T16:27:14.679Z,7.30
2022-08-28T16:29:42.631Z,8.98
2022-08-28T16:32:09.497Z,8.48
2022-08-28T16:34:38.523Z,10.25
2022-08-28T16:37:08.033Z,13.13
2022-08-28T16:39:35.328Z,5.25
2022-08-28T16:42:02.035Z,6.10
2022-08-28T16:44:28.639Z,6.38
2022-08-28T16:46:55.855Z,5.82
2022-08-28T16:49:23.744Z,6.57
2022-08-28T16:51:50.637Z,8.60
2022-08-28T16:54:18.243Z,7.13
2022-08-28T16:56:45.829Z,8.60
2022-08-28T16:59:16.357Z,6.15
2022-08-28T17:01:43.090Z,5.43
2022-08-28T17:04:10.234Z,8.98
2022-08-28T17:06:37.112Z,6.38
2022-08-28T17:09:04.162Z,6.95
2022-08-28T17:11:31.932Z,9.82
2022-08-28T17:16:31.411Z,8.00
2022-08-28T17:18:59.621Z,6.35
2022-08-28T17:24:12.619Z,7.70
2022-08-28T17:29:06.362Z,9.77
2022-08-28T17:31:33.041Z,7.78
2022-08-28T17:33:59.641Z,7.40
2022-08-28T17:36:33.791Z,9.13
2022-08-28T17:39:09.390Z,9.07
2022-08-28T17:41:36.778Z,5.80
2022-08-28T17:44:04.995Z,7.40
2022-08-28T17:46:37.425Z,5.72
2022-08-28T17:49:06.377Z,7.00
2022-08-28T17:51:42.802Z,7.93
2022-08-28T17:54:16.250Z,7.13
2022-08-28T17:56:42.902Z,7.95
2022-08-28T17:59:10.316Z,8.32
2022-08-28T18:01:38.365Z,8.00
2022-08-28T18:04:05.674Z,6.47
2022-08-28T18:06:32.903Z,7.10
2022-08-28T18:09:00.413Z,7.45
2022-08-28T18:11:27.484Z,6.43
2022-08-28T18:13:54.472Z,9.02
2022-08-28T18:16:21.596Z,7.03
2022-08-28T18:18:48.467Z,6.88
2022-08-28T18:21:15.192Z,8.30
2022-08-28T18:23:42.001Z,7.32
2022-08-28T18:26:09.148Z,6.40
2022-08-28T18:28:36.669Z,7.60
2022-08-28T18:31:06.605Z,8.70
2022-08-28T18:33:34.224Z,8.65
2022-08-28T18:36:00.774Z,9.07
2022-08-28T18:38:28.613Z,8.68
2022-08-28T18:40:56.068Z,8.35
2022-08-28T18:43:23.010Z,6.97
2022-08-28T18:45:49.855Z,7.13
2022-08-28T18:48:16.552Z,9.20
2022-08-28T18:50:46.283Z,5.53
2022-08-28T18:53:17.548Z,5.75
2022-08-28T18:55:45.760Z,7.32
2022-08-28T19:00:42.325Z,7.15
2022-08-28T19:03:09.301Z,8.93
2022-08-28T19:05:37.880Z,6.72
2022-08-28T19:08:05.159Z,8.73
2022-08-28T19:10:34.330Z,7.72
2022-08-28T19:13:02.443Z,8.10
2022-08-28T19:15:30.265Z,9.57
2022-08-28T19:17:58.081Z,12.20
2022-08-28T19:20:26.477Z,8.25
2022-08-28T19:22:53.244Z,32.05
2022-08-28T19:25:28.535Z,7.70
2022-08-28T19:27:58.802Z,9.88
2022-08-28T19:30:27.846Z,7.53
2022-08-28T19:32:54.874Z,6.80
2022-08-28T19:35:24.119Z,7.95
2022-08-28T19:37:51.890Z,9.70
2022-08-28T19:40:18.732Z,7.35
2022-08-28T19:42:45.751Z,7.10
2022-08-28T19:45:15.047Z,7.82
2022-08-28T19:47:42.049Z,7.60
2022-08-28T19:50:11.346Z,8.35
2022-08-28T19:52:38.630Z,14.18
2022-08-28T19:55:06.607Z,9.10
2022-08-28T19:57:34.249Z,6.18
2022-08-28T20:00:00.913Z,5.20
2022-08-28T20:02:28.741Z,4.18
2022-08-28T20:04:55.468Z,4.65
2022-08-28T20:07:22.353Z,4.80
2022-08-28T20:09:48.982Z,3.95
2022-08-28T20:12:16.065Z,4.28
2022-08-28T20:14:42.712Z,3.35
2022-08-28T20:17:09.554Z,3.33
2022-08-28T20:19:36.287Z,2.63
2022-08-28T20:22:03.868Z,3.03
2022-08-28T20:24:30.419Z,3.67
2022-08-28T20:26:58.990Z,4.35
2022-08-28T20:29:25.699Z,2.67
2022-08-28T20:31:52.836Z,2.15
2022-08-28T20:34:21.025Z,2.33
2022-08-28T20:36:48.165Z,2.33
2022-08-28T20:39:15.527Z,2.88
2022-08-28T20:41:44.304Z,4.50
2022-08-28T20:44:13.626Z,3.25
2022-08-28T20:46:42.086Z,3.13
2022-08-28T20:49:10.358Z,1.55
2022-08-28T20:51:55.735Z,1.60
2022-08-28T20:54:26.471Z,1.83
2022-08-28T20:56:54.122Z,1.35
2022-08-28T20:59:21.620Z,2.95
2022-08-28T21:01:51.592Z,1.50
2022-08-28T21:04:18.818Z,1.80
2022-08-28T21:06:46.668Z,1.45
2022-08-28T21:09:17.539Z,1.63
2022-08-28T21:11:44.888Z,1.42
2022-08-28T21:14:12.155Z,1.65
2022-08-28T21:16:40.704Z,1.80
2022-08-28T21:19:16.672Z,1.20
2022-08-28T21:21:44.277Z,3.58
2022-08-28T21:24:13.883Z,1.70
2022-08-28T21:26:43.191Z,1.67
2022-08-28T21:29:13.029Z,2.92
2022-08-28T21:31:43.759Z,1.45
2022-08-28T21:34:11.526Z,1.90
2022-08-28T21:36:46.897Z,1.40
2022-08-28T21:39:17.219Z,1.30
2022-08-28T21:41:43.886Z,1.58
2022-08-28T21:44:10.600Z,2.13
2022-08-28T21:46:37.172Z,1.45
2022-08-28T21:49:03.961Z,1.60
2022-08-28T21:51:32.806Z,1.23
2022-08-28T21:53:59.370Z,2.15
2022-08-28T21:56:27.778Z,1.40
2022-08-28T22:01:26.543Z,1.42
2022-08-28T22:03:55.015Z,1.50
2022-08-28T22:08:50.822Z,1.58
2022-08-28T22:11:21.021Z,1.35
2022-08-28T22:13:51.601Z,1.30
2022-08-28T22:16:18.573Z,2.95
2022-08-28T22:18:45.178Z,1.77
2022-08-28T22:21:37.233Z,2.00
2022-08-28T22:24:04.594Z,2.45
2022-08-28T22:26:31.157Z,2.90
2022-08-28T22:28:58.092Z,2.42
2022-08-28T22:31:24.867Z,2.75
2022-08-28T22:33:52.161Z,2.83
2022-08-28T22:36:20.020Z,1.48
2022-08-28T22:38:53.002Z,2.45
2022-08-28T22:41:20.754Z,2.58
2022-08-28T22:43:48.285Z,3.30
2022-08-28T22:46:17.234Z,2.30
2022-08-28T22:48:43.862Z,2.30
2022-08-28T22:51:13.141Z,2.35
2022-08-28T22:53:41.199Z,3.35
2022-08-28T22:56:08.710Z,2.30
2022-08-28T22:58:35.325Z,3.13
2022-08-28T23:01:06.828Z,2.13
2022-08-28T23:03:33.563Z,2.60
2022-08-28T23:06:00.181Z,3.53
2022-08-28T23:08:29.683Z,2.83
2022-08-28T23:11:00.000Z,2.92
2022-08-28T23:13:27.223Z,2.30
2022-08-28T23:15:54.007Z,3.70
2022-08-28T23:18:21.090Z,2.88
2022-08-28T23:20:47.739Z,2.50
2022-08-28T23:23:17.357Z,2.72
2022-08-28T23:25:43.935Z,2.92
2022-08-28T23:28:10.741Z,2.75
2022-08-28T23:30:38.950Z,3.38
2022-08-28T23:33:08.582Z,3.13
2022-08-28T23:35:35.593Z,3.45
2022-08-28T23:38:02.180Z,5.28
2022-08-28T23:40:30.384Z,2.92
2022-08-28T23:42:58.028Z,2.08
2022-08-28T23:45:26.360Z,3.20
2022-08-28T23:47:54.023Z,2.88
2022-08-28T23:50:22.398Z,3.50
2022-08-28T23:52:49.585Z,1.77
2022-08-28T23:55:18.701Z,3.30
2022-08-28T23:57:45.866Z,2.90
